createdAt,value
2019-03-10T00:00:00.363Z,6.49
2019-03-10T00:02:32.838Z,6.41
2019-03-10T00:05:05.070Z,6.32
2019-03-10T00:07:36.551Z,6.29
2019-03-10T00:10:10.080Z,6.14
2019-03-10T00:12:42.550Z,5.97
2019-03-10T00:15:15.140Z,5.76
2019-03-10T00:17:47.518Z,5.61
2019-03-10T00:20:19.890Z,5.51
2019-03-10T00:22:52.230Z,5.46
2019-03-10T00:25:25.924Z,5.46
2019-03-10T00:27:58.330Z,5.43
2019-03-10T00:30:31.760Z,5.42
2019-03-10T00:33:04.140Z,5.41
2019-03-10T00:35:36.502Z,5.37
2019-03-10T00:38:08.880Z,5.36
2019-03-10T00:41:32.440Z,5.36
2019-03-10T00:45:03.098Z,5.35
2019-03-10T00:48:20.638Z,5.32
2019-03-10T00:51:25.643Z,5.31
2019-03-10T00:53:57.830Z,5.30
2019-03-10T00:56:29.568Z,5.30
2019-03-10T00:59:01.729Z,5.30
2019-03-10T01:01:35.561Z,5.28
2019-03-10T01:04:07.779Z,5.27
2019-03-10T01:06:38.999Z,5.26
2019-03-10T01:09:11.592Z,5.26
2019-03-10T01:11:44.028Z,5.26
2019-03-10T01:14:16.370Z,5.28
2019-03-10T01:16:48.992Z,5.29
2019-03-10T01:19:23.630Z,5.30
2019-03-10T01:21:57.408Z,5.31
2019-03-10T01:24:29.808Z,5.33
2019-03-10T01:27:02.190Z,5.33
2019-03-10T01:29:34.490Z,5.33
2019-03-10T01:32:33.667Z,5.31
2019-03-10T01:35:12.524Z,5.28
2019-03-10T01:37:45.113Z,5.27
2019-03-10T01:40:17.580Z,5.26
2019-03-10T01:42:49.998Z,5.23
2019-03-10T01:45:22.349Z,5.21
2019-03-10T01:47:54.681Z,5.19
2019-03-10T01:50:26.980Z,5.18
2019-03-10T01:52:59.351Z,5.16
2019-03-10T01:55:31.624Z,5.14
2019-03-10T01:58:02.939Z,5.11
2019-03-10T02:00:35.127Z,5.09
2019-03-10T02:03:07.620Z,5.10
2019-03-10T02:05:40.028Z,5.13
2019-03-10T02:08:13.098Z,5.15
2019-03-10T02:10:45.395Z,5.17
2019-03-10T02:13:17.800Z,5.18
2019-03-10T02:15:51.197Z,5.17
2019-03-10T02:18:23.788Z,5.19
2019-03-10T02:20:56.020Z,5.21
2019-03-10T02:23:28.118Z,5.23
2019-03-10T02:26:00.213Z,5.22
2019-03-10T02:28:32.589Z,5.22
2019-03-10T02:31:04.975Z,5.25
2019-03-10T02:33:37.310Z,5.30
2019-03-10T02:36:09.641Z,5.33
2019-03-10T02:38:41.997Z,5.35
2019-03-10T02:41:14.624Z,5.35
2019-03-10T02:43:46.990Z,5.41
2019-03-10T02:46:19.296Z,5.47
2019-03-10T02:48:51.562Z,5.47
2019-03-10T02:51:23.881Z,5.41
2019-03-10T02:53:54.919Z,5.36
2019-03-10T02:56:27.111Z,5.28
2019-03-10T02:58:59.434Z,5.27
2019-03-10T03:01:32.120Z,5.16
2019-03-10T03:04:04.502Z,5.13
2019-03-10T03:06:36.771Z,5.14
2019-03-10T03:09:08.033Z,5.14
2019-03-10T03:11:40.616Z,5.14
2019-03-10T03:14:12.741Z,5.08
2019-03-10T03:16:46.162Z,5.05
2019-03-10T03:19:18.419Z,4.95
2019-03-10T03:21:50.771Z,4.93
2019-03-10T03:24:23.118Z,4.93
2019-03-10T03:26:55.522Z,4.91
2019-03-10T03:29:27.766Z,4.87
2019-03-10T03:32:00.279Z,4.82
2019-03-10T03:34:32.619Z,4.81
2019-03-10T03:37:05.903Z,4.85
2019-03-10T03:39:47.650Z,4.78
2019-03-10T03:42:20.071Z,4.64
2019-03-10T03:44:52.496Z,4.55
2019-03-10T03:47:24.842Z,4.51
2019-03-10T03:49:57.301Z,4.47
2019-03-10T03:52:29.632Z,4.50
2019-03-10T03:55:02.822Z,4.46
2019-03-10T03:57:35.122Z,4.43
2019-03-10T04:00:07.707Z,4.41
2019-03-10T04:02:40.766Z,4.42
2019-03-10T04:05:13.761Z,4.38
2019-03-10T04:07:46.062Z,4.38
2019-03-10T04:10:18.400Z,4.32
2019-03-10T04:12:50.852Z,4.23
2019-03-10T04:15:23.321Z,4.18
2019-03-10T04:17:55.744Z,4.22
2019-03-10T04:20:28.079Z,4.29
2019-03-10T04:23:00.661Z,4.30
2019-03-10T04:25:33.340Z,4.23
2019-03-10T04:28:06.780Z,4.23
2019-03-10T04:30:39.031Z,4.20
2019-03-10T04:33:10.178Z,4.19
2019-03-10T04:35:42.366Z,4.15
2019-03-10T04:38:14.756Z,4.13
2019-03-10T04:40:47.052Z,4.07
2019-03-10T04:43:19.495Z,4.04
2019-03-10T04:45:51.930Z,4.08
2019-03-10T04:48:24.290Z,4.05
2019-03-10T04:50:57.170Z,4.00
2019-03-10T04:53:29.410Z,3.95
2019-03-10T04:56:12.607Z,3.91
2019-03-10T04:58:50.910Z,3.92
2019-03-10T05:01:23.724Z,3.87
2019-03-10T05:03:56.060Z,3.82
2019-03-10T05:06:28.322Z,3.82
2019-03-10T05:08:59.508Z,3.81
2019-03-10T05:11:31.710Z,3.76
2019-03-10T05:14:05.134Z,3.74
2019-03-10T05:16:37.650Z,3.75
2019-03-10T05:19:10.101Z,3.77
2019-03-10T05:21:42.450Z,3.85
2019-03-10T05:24:16.120Z,3.91
2019-03-10T05:26:48.572Z,3.94
2019-03-10T05:29:20.820Z,3.96
2019-03-10T05:31:52.019Z,4.01
2019-03-10T05:34:24.311Z,4.03
2019-03-10T05:36:56.630Z,4.04
2019-03-10T05:39:29.011Z,4.08
2019-03-10T05:42:01.330Z,4.12
2019-03-10T05:44:33.789Z,4.19
2019-03-10T05:47:06.220Z,4.26
2019-03-10T05:49:38.596Z,4.28
2019-03-10T05:52:11.851Z,4.30
2019-03-10T05:54:44.522Z,4.35
2019-03-10T05:57:16.800Z,4.39
2019-03-10T05:59:49.080Z,4.40
2019-03-10T06:02:21.413Z,4.41
2019-03-10T06:04:53.670Z,4.46
2019-03-10T06:07:24.949Z,4.49
2019-03-10T06:09:58.062Z,4.51
2019-03-10T06:12:30.290Z,4.52
2019-03-10T06:15:01.608Z,4.57
2019-03-10T06:17:33.973Z,4.64
2019-03-10T06:20:06.951Z,4.72
2019-03-10T06:22:39.121Z,4.74
2019-03-10T06:25:10.429Z,4.74
2019-03-10T06:27:42.560Z,4.74
2019-03-10T06:30:15.070Z,4.80
2019-03-10T06:32:47.400Z,4.82
2019-03-10T06:35:19.701Z,4.86
2019-03-10T06:37:52.690Z,4.93
2019-03-10T06:40:32.258Z,5.07
2019-03-10T06:43:00.170Z,5.20
2019-03-10T06:45:32.537Z,5.19
2019-03-10T06:48:04.970Z,5.19
2019-03-10T06:50:38.371Z,5.23
2019-03-10T06:53:10.750Z,5.21
2019-03-10T06:55:44.230Z,5.20
2019-03-10T06:58:16.580Z,5.19
2019-03-10T07:00:48.930Z,5.19
2019-03-10T07:03:22.250Z,5.18
2019-03-10T07:05:54.620Z,5.28
2019-03-10T07:08:27.059Z,5.32
2019-03-10T07:10:59.466Z,5.32
2019-03-10T07:13:31.799Z,5.26
2019-03-10T07:16:04.200Z,5.30
2019-03-10T07:18:36.580Z,5.29
2019-03-10T07:21:09.044Z,5.31
2019-03-10T07:23:41.413Z,5.36
2019-03-10T07:26:13.870Z,5.36
2019-03-10T07:28:51.810Z,5.46
2019-03-10T07:31:37.432Z,5.46
2019-03-10T07:34:40.758Z,5.49
2019-03-10T07:37:35.149Z,5.57
2019-03-10T07:40:24.490Z,5.68
2019-03-10T07:43:10.020Z,5.68
2019-03-10T07:46:01.050Z,6.16
2019-03-10T07:48:58.109Z,6.29
2019-03-10T07:51:51.640Z,5.99
2019-03-10T07:54:57.865Z,6.70
2019-03-10T07:57:57.931Z,7.07
2019-03-10T08:00:58.650Z,6.89
2019-03-10T08:03:48.251Z,7.13
2019-03-10T08:06:39.420Z,7.05
2019-03-10T08:09:33.300Z,7.13
2019-03-10T08:12:17.210Z,7.35
2019-03-10T08:15:15.031Z,7.60
2019-03-10T08:18:06.233Z,8.13
2019-03-10T08:20:47.749Z,8.33
2019-03-10T08:23:38.621Z,8.27
2019-03-10T08:26:36.230Z,8.42
2019-03-10T08:29:24.521Z,8.80
2019-03-10T08:32:14.420Z,7.99
2019-03-10T08:34:53.901Z,7.84
2019-03-10T08:38:00.770Z,8.07
2019-03-10T08:40:48.892Z,7.92
2019-03-10T08:43:39.314Z,7.79
2019-03-10T08:46:30.390Z,7.49
2019-03-10T08:49:21.870Z,7.31
2019-03-10T08:52:14.559Z,7.17
2019-03-10T08:55:04.090Z,7.96
2019-03-10T08:58:04.364Z,8.09
2019-03-10T09:01:09.971Z,7.75
2019-03-10T09:03:48.040Z,8.01
2019-03-10T09:06:37.730Z,8.20
2019-03-10T09:09:47.018Z,7.89
2019-03-10T09:12:35.140Z,7.49
2019-03-10T09:15:29.594Z,7.28
2019-03-10T09:18:32.647Z,7.30
2019-03-10T09:21:14.080Z,7.38
2019-03-10T09:24:18.424Z,7.61
2019-03-10T09:27:09.510Z,8.15
2019-03-10T09:30:07.420Z,8.82
2019-03-10T09:33:07.680Z,9.50
2019-03-10T09:36:01.910Z,9.61
2019-03-10T09:38:52.361Z,9.70
2019-03-10T09:41:46.629Z,10.35
2019-03-10T09:44:36.781Z,10.85
2019-03-10T09:47:27.970Z,10.46
2019-03-10T09:50:18.020Z,10.87
2019-03-10T09:53:07.736Z,10.59
2019-03-10T09:56:05.060Z,10.66
2019-03-10T09:58:54.780Z,10.56
2019-03-10T10:01:47.159Z,11.37
2019-03-10T10:04:27.084Z,12.06
2019-03-10T10:07:22.480Z,12.56
2019-03-10T10:10:04.101Z,12.43
2019-03-10T10:13:00.284Z,11.48
2019-03-10T10:15:42.151Z,12.27
2019-03-10T10:18:36.631Z,12.51
2019-03-10T10:21:40.030Z,12.89
2019-03-10T10:24:37.017Z,13.29
2019-03-10T10:27:23.513Z,13.42
2019-03-10T10:30:04.012Z,13.23
2019-03-10T10:33:04.511Z,12.71
2019-03-10T10:36:10.643Z,12.95
2019-03-10T10:39:05.045Z,13.28
2019-03-10T10:42:09.489Z,13.38
2019-03-10T10:45:08.080Z,13.73
2019-03-10T10:48:00.368Z,12.66
2019-03-10T10:50:57.397Z,12.79
2019-03-10T10:53:48.770Z,13.25
2019-03-10T10:56:42.700Z,13.21
2019-03-10T10:59:27.913Z,13.20
2019-03-10T11:02:06.527Z,13.45
2019-03-10T11:05:01.963Z,13.78
2019-03-10T11:07:52.298Z,13.32
2019-03-10T11:10:55.470Z,13.62
2019-03-10T11:13:48.059Z,13.96
2019-03-10T11:16:31.268Z,14.22
2019-03-10T11:19:07.974Z,14.26
2019-03-10T11:22:05.952Z,13.67
2019-03-10T11:24:57.220Z,13.41
2019-03-10T11:27:47.280Z,13.29
2019-03-10T11:30:54.459Z,13.37
2019-03-10T11:33:45.681Z,11.97
2019-03-10T11:36:42.750Z,12.16
2019-03-10T11:39:43.104Z,13.25
2019-03-10T11:42:40.770Z,13.00
2019-03-10T11:45:37.756Z,13.01
2019-03-10T11:48:27.390Z,12.75
2019-03-10T11:51:20.301Z,12.38
2019-03-10T11:54:10.990Z,12.36
2019-03-10T11:57:02.336Z,12.83
2019-03-10T11:59:43.350Z,12.68
2019-03-10T12:02:28.282Z,12.07
2019-03-10T12:05:14.150Z,11.54
2019-03-10T12:08:00.584Z,10.94
2019-03-10T12:10:33.060Z,10.62
2019-03-10T12:13:05.970Z,10.44
2019-03-10T12:15:38.400Z,10.40
2019-03-10T12:18:10.890Z,10.54
2019-03-10T12:20:43.299Z,10.74
2019-03-10T12:23:15.980Z,10.73
2019-03-10T12:25:48.620Z,10.73
2019-03-10T12:28:22.051Z,10.67
2019-03-10T12:30:54.535Z,10.46
2019-03-10T12:33:27.075Z,10.43
2019-03-10T12:35:59.734Z,10.38
2019-03-10T12:38:32.290Z,10.31
2019-03-10T12:41:08.528Z,10.19
2019-03-10T12:43:42.060Z,10.02
2019-03-10T12:46:16.432Z,10.03
2019-03-10T12:48:56.388Z,10.04
2019-03-10T12:51:29.631Z,9.93
2019-03-10T12:54:02.120Z,9.87
2019-03-10T12:56:36.040Z,9.94
2019-03-10T12:59:11.754Z,9.85
2019-03-10T13:01:45.243Z,9.79
2019-03-10T13:04:21.121Z,9.80
2019-03-10T13:06:55.683Z,9.86
2019-03-10T13:09:28.042Z,9.91
2019-03-10T13:12:00.592Z,9.87
2019-03-10T13:14:33.030Z,9.90
2019-03-10T13:17:05.490Z,9.85
2019-03-10T13:19:38.170Z,9.88
2019-03-10T13:22:12.021Z,9.80
2019-03-10T13:24:44.587Z,9.88
2019-03-10T13:27:16.960Z,9.93
2019-03-10T13:29:48.398Z,10.02
2019-03-10T13:32:21.719Z,10.17
2019-03-10T13:34:54.255Z,10.25
2019-03-10T13:37:26.800Z,10.13
2019-03-10T13:40:05.020Z,10.05
2019-03-10T13:42:37.731Z,9.91
2019-03-10T13:45:10.475Z,9.90
2019-03-10T13:47:43.143Z,9.85
2019-03-10T13:50:16.240Z,9.84
2019-03-10T13:52:49.230Z,9.74
2019-03-10T13:55:21.524Z,9.62
2019-03-10T13:57:52.909Z,9.56
2019-03-10T14:00:25.750Z,9.49
2019-03-10T14:02:58.167Z,9.43
2019-03-10T14:05:30.740Z,9.30
2019-03-10T14:08:03.220Z,9.26
2019-03-10T14:10:35.700Z,9.19
2019-03-10T14:13:08.371Z,9.16
2019-03-10T14:15:40.749Z,9.18
2019-03-10T14:18:15.440Z,9.15
2019-03-10T14:20:47.833Z,9.20
2019-03-10T14:23:20.290Z,9.24
2019-03-10T14:25:52.659Z,9.26
2019-03-10T14:28:25.110Z,9.24
2019-03-10T14:30:57.481Z,9.25
2019-03-10T14:33:29.927Z,9.22
2019-03-10T14:36:02.409Z,9.23
2019-03-10T14:38:35.301Z,9.22
2019-03-10T14:41:07.712Z,9.17
2019-03-10T14:43:40.158Z,9.15
2019-03-10T14:46:12.490Z,9.14
2019-03-10T14:48:45.009Z,9.10
2019-03-10T14:51:18.170Z,9.11
2019-03-10T14:53:52.350Z,9.07
2019-03-10T14:56:24.822Z,9.06
2019-03-10T14:58:57.559Z,9.01
2019-03-10T15:01:30.003Z,9.00
2019-03-10T15:04:02.942Z,8.99
2019-03-10T15:06:35.322Z,8.97
2019-03-10T15:09:09.140Z,8.96
2019-03-10T15:11:43.051Z,8.88
2019-03-10T15:14:15.500Z,8.81
2019-03-10T15:16:47.877Z,8.74
2019-03-10T15:19:20.380Z,8.69
2019-03-10T15:21:52.959Z,8.64
2019-03-10T15:24:25.810Z,8.57
2019-03-10T15:26:58.232Z,8.54
2019-03-10T15:29:30.664Z,8.48
2019-03-10T15:32:03.234Z,8.39
2019-03-10T15:34:35.671Z,8.23
2019-03-10T15:37:08.053Z,8.04
2019-03-10T15:39:40.551Z,7.89
2019-03-10T15:42:12.981Z,7.81
2019-03-10T15:44:45.510Z,7.71
2019-03-10T15:47:17.960Z,7.68
2019-03-10T15:49:52.140Z,7.65
2019-03-10T15:52:24.521Z,7.63
2019-03-10T15:54:57.101Z,7.58
2019-03-10T15:57:29.482Z,7.49
2019-03-10T16:00:01.940Z,7.39
2019-03-10T16:02:35.980Z,7.28
2019-03-10T16:05:08.956Z,7.12
2019-03-10T16:07:41.641Z,7.05
2019-03-10T16:10:14.250Z,6.99
2019-03-10T16:12:46.690Z,6.88
2019-03-10T16:15:19.492Z,6.76
2019-03-10T16:17:51.851Z,6.67
2019-03-10T16:20:25.361Z,6.60
2019-03-10T16:22:57.811Z,6.56
2019-03-10T16:25:30.312Z,6.50
2019-03-10T16:28:02.780Z,6.50
2019-03-10T16:30:35.130Z,6.45
2019-03-10T16:33:07.420Z,6.37
2019-03-10T16:35:41.411Z,6.34
2019-03-10T16:38:13.725Z,6.30
2019-03-10T16:40:45.089Z,6.35
2019-03-10T16:43:18.400Z,6.31
2019-03-10T16:45:54.693Z,6.26
2019-03-10T16:48:27.110Z,6.26
2019-03-10T16:51:00.113Z,6.26
2019-03-10T16:53:33.010Z,6.25
2019-03-10T16:56:06.210Z,6.19
2019-03-10T16:58:38.588Z,6.11
2019-03-10T17:01:11.151Z,6.14
2019-03-10T17:03:43.541Z,6.15
2019-03-10T17:06:16.475Z,6.11
2019-03-10T17:08:48.952Z,6.06
2019-03-10T17:11:21.481Z,6.09
2019-03-10T17:13:53.940Z,6.06
2019-03-10T17:16:28.020Z,6.09
2019-03-10T17:19:01.071Z,6.06
2019-03-10T17:21:34.020Z,6.11
2019-03-10T17:24:06.470Z,6.05
2019-03-10T17:26:39.129Z,6.00
2019-03-10T17:29:11.572Z,6.03
2019-03-10T17:31:44.070Z,5.99
2019-03-10T17:34:16.440Z,5.96
2019-03-10T17:36:50.371Z,5.95
2019-03-10T17:39:22.823Z,5.96
2019-03-10T17:41:55.530Z,5.96
2019-03-10T17:44:28.090Z,6.00
2019-03-10T17:47:04.091Z,6.00
2019-03-10T17:49:36.730Z,5.97
2019-03-10T17:52:14.395Z,5.99
2019-03-10T17:54:44.640Z,6.04
2019-03-10T17:57:16.970Z,6.03
2019-03-10T17:59:49.360Z,5.98
2019-03-10T18:02:22.008Z,5.97
2019-03-10T18:04:54.470Z,5.94
2019-03-10T18:07:26.930Z,5.96
2019-03-10T18:09:59.302Z,5.93
2019-03-10T18:12:31.830Z,5.92
2019-03-10T18:15:08.728Z,5.88
2019-03-10T18:17:38.837Z,5.83
2019-03-10T18:20:13.329Z,5.85
2019-03-10T18:22:45.921Z,5.90
2019-03-10T18:25:18.330Z,5.99
2019-03-10T18:27:50.740Z,5.88
2019-03-10T18:30:23.202Z,5.82
2019-03-10T18:32:56.249Z,5.83
2019-03-10T18:35:28.879Z,5.86
2019-03-10T18:38:01.586Z,5.85
2019-03-10T18:40:34.101Z,5.87
2019-03-10T18:43:08.910Z,5.88
2019-03-10T18:45:42.580Z,5.90
2019-03-10T18:48:15.591Z,5.93
2019-03-10T18:50:48.036Z,5.97
2019-03-10T18:53:20.410Z,6.00
2019-03-10T18:55:52.860Z,6.02
2019-03-10T18:58:25.340Z,6.05
2019-03-10T19:00:57.975Z,6.08
2019-03-10T19:03:30.470Z,6.06
2019-03-10T19:06:03.310Z,6.04
2019-03-10T19:08:36.714Z,6.00
2019-03-10T19:11:09.160Z,5.99
2019-03-10T19:13:41.602Z,5.94
2019-03-10T19:16:14.000Z,5.93
2019-03-10T19:18:47.510Z,5.94
2019-03-10T19:21:19.850Z,5.86
2019-03-10T19:23:52.310Z,5.86
2019-03-10T19:26:27.059Z,5.83
2019-03-10T19:28:59.981Z,5.82
2019-03-10T19:31:33.122Z,5.77
2019-03-10T19:34:05.799Z,5.79
2019-03-10T19:36:38.320Z,5.79
2019-03-10T19:39:10.720Z,5.79
2019-03-10T19:41:44.542Z,5.81
2019-03-10T19:44:16.993Z,5.83
2019-03-10T19:46:50.140Z,5.82
2019-03-10T19:49:23.813Z,5.77
2019-03-10T19:51:56.279Z,5.83
2019-03-10T19:54:28.604Z,5.80
2019-03-10T19:56:59.979Z,5.81
2019-03-10T19:59:32.678Z,5.80
2019-03-10T20:02:04.959Z,5.79
2019-03-10T20:04:37.403Z,5.82
2019-03-10T20:07:10.073Z,5.81
2019-03-10T20:09:42.591Z,5.80
2019-03-10T20:12:16.122Z,5.82
2019-03-10T20:14:49.121Z,5.75
2019-03-10T20:17:22.031Z,5.79
2019-03-10T20:19:55.140Z,5.76
2019-03-10T20:22:28.231Z,5.70
2019-03-10T20:25:00.761Z,5.75
2019-03-10T20:27:33.731Z,5.78
2019-03-10T20:30:06.810Z,5.77
2019-03-10T20:32:40.230Z,5.75
2019-03-10T20:35:12.915Z,5.72
2019-03-10T20:37:45.820Z,5.73
2019-03-10T20:40:18.571Z,5.77
2019-03-10T20:42:51.913Z,5.77
2019-03-10T20:45:24.936Z,5.75
2019-03-10T20:47:58.189Z,5.82
2019-03-10T20:50:32.129Z,5.88
2019-03-10T20:53:06.551Z,5.80
2019-03-10T20:55:39.373Z,5.81
2019-03-10T20:58:12.190Z,5.81
2019-03-10T21:00:44.660Z,5.75
2019-03-10T21:03:17.200Z,5.71
2019-03-10T21:05:49.871Z,5.69
2019-03-10T21:08:22.955Z,5.72
2019-03-10T21:10:55.368Z,5.82
2019-03-10T21:13:27.770Z,5.87
2019-03-10T21:16:00.248Z,5.91
2019-03-10T21:18:32.640Z,5.89
2019-03-10T21:21:05.071Z,5.84
2019-03-10T21:23:37.406Z,5.78
2019-03-10T21:26:09.965Z,5.79
2019-03-10T21:28:42.380Z,5.81
2019-03-10T21:31:25.750Z,5.80
2019-03-10T21:33:58.141Z,5.82
2019-03-10T21:36:31.152Z,5.88
2019-03-10T21:39:05.661Z,5.89
2019-03-10T21:41:38.991Z,5.86
2019-03-10T21:44:13.650Z,5.88
2019-03-10T21:46:46.848Z,5.91
2019-03-10T21:49:19.670Z,5.94
2019-03-10T21:51:52.020Z,5.91
2019-03-10T21:54:24.601Z,5.88
2019-03-10T21:56:56.950Z,5.87
2019-03-10T21:59:29.561Z,5.82
2019-03-10T22:02:02.033Z,5.80
2019-03-10T22:04:34.581Z,5.79
2019-03-10T22:07:07.059Z,5.82
2019-03-10T22:09:39.470Z,5.88
2019-03-10T22:12:13.692Z,5.88
2019-03-10T22:14:46.090Z,5.90
2019-03-10T22:17:18.482Z,5.87
2019-03-10T22:19:50.875Z,5.89
2019-03-10T22:22:23.560Z,5.89
2019-03-10T22:24:55.971Z,5.89
2019-03-10T22:27:28.310Z,5.89
2019-03-10T22:30:01.238Z,5.86
2019-03-10T22:32:33.720Z,5.86
2019-03-10T22:35:06.740Z,5.90
2019-03-10T22:37:39.130Z,5.91
2019-03-10T22:40:11.954Z,5.94
2019-03-10T22:42:44.352Z,5.96
2019-03-10T22:45:16.957Z,5.99
2019-03-10T22:47:50.820Z,6.07
2019-03-10T22:50:23.450Z,6.17
2019-03-10T22:52:55.780Z,6.24
2019-03-10T22:55:28.093Z,6.36
2019-03-10T22:58:00.480Z,6.47
2019-03-10T23:00:51.852Z,6.58
2019-03-10T23:03:24.690Z,6.69
2019-03-10T23:05:58.380Z,6.96
2019-03-10T23:08:31.060Z,7.04
2019-03-10T23:11:03.540Z,7.11
2019-03-10T23:13:37.062Z,7.12
2019-03-10T23:16:09.571Z,7.12
2019-03-10T23:18:41.922Z,7.16
2019-03-10T23:21:14.572Z,7.20
2019-03-10T23:23:47.679Z,7.22
2019-03-10T23:26:19.990Z,7.23
2019-03-10T23:28:51.989Z,7.30
2019-03-10T23:31:24.252Z,7.33
2019-03-10T23:33:56.945Z,7.32
2019-03-10T23:36:29.290Z,7.35
2019-03-10T23:39:01.620Z,7.37
2019-03-10T23:41:36.601Z,7.34
2019-03-10T23:44:08.840Z,7.32
2019-03-10T23:46:40.268Z,7.33
2019-03-10T23:49:12.836Z,7.34
2019-03-10T23:51:45.382Z,7.33
2019-03-10T23:54:17.791Z,7.30
2019-03-10T23:56:52.363Z,7.24
2019-03-10T23:59:24.870Z,7.25
